createdAt,value
2019-05-03T00:01:49.910Z,98858.84
2019-05-03T00:04:24.102Z,98858.50
2019-05-03T00:06:59.013Z,98860.76
2019-05-03T00:09:33.143Z,98853.56
2019-05-03T00:12:06.888Z,98858.23
2019-05-03T00:14:41.684Z,98858.00
2019-05-03T00:17:15.548Z,98863.15
2019-05-03T00:19:49.147Z,98859.06
2019-05-03T00:22:23.105Z,98860.56
2019-05-03T00:25:05.342Z,98863.50
2019-05-03T00:27:32.242Z,98856.53
2019-05-03T00:30:07.331Z,98848.69
2019-05-03T00:32:42.618Z,98860.23
2019-05-03T00:35:17.244Z,98851.63
2019-05-03T00:37:52.528Z,98854.05
2019-05-03T00:40:25.895Z,98847.04
2019-05-03T00:43:02.158Z,98847.96
2019-05-03T00:45:35.051Z,98844.96
2019-05-03T00:48:08.630Z,98844.31
2019-05-03T00:50:42.577Z,98843.96
2019-05-03T00:53:18.473Z,98843.13
2019-05-03T00:55:52.733Z,98847.06
2019-05-03T00:58:26.300Z,98843.69
2019-05-03T01:01:00.047Z,98832.08
2019-05-03T01:03:33.999Z,98831.83
2019-05-03T01:06:11.516Z,98842.72
2019-05-03T01:08:45.042Z,98836.30
2019-05-03T01:11:18.919Z,98834.41
2019-05-03T01:13:52.505Z,98836.30
2019-05-03T01:16:26.467Z,98835.10
2019-05-03T01:19:02.476Z,98830.11
2019-05-03T01:21:37.243Z,98836.88
2019-05-03T01:24:12.315Z,98831.73
2019-05-03T01:29:28.349Z,98821.34
2019-05-03T01:32:02.294Z,98826.05
2019-05-03T01:34:42.660Z,98824.44
2019-05-03T01:37:17.211Z,98829.82
2019-05-03T01:39:52.433Z,98831.10
2019-05-03T01:42:25.644Z,98820.63
2019-05-03T01:45:01.547Z,98810.26
2019-05-03T01:47:34.543Z,98815.17
2019-05-03T01:50:08.232Z,98816.48
2019-05-03T01:52:42.587Z,98815.97
2019-05-03T01:55:19.127Z,98814.34
2019-05-03T01:57:53.439Z,98821.78
2019-05-03T02:00:27.501Z,98824.34
2019-05-03T02:03:02.186Z,98825.13
2019-05-03T02:05:36.752Z,98828.13
2019-05-03T02:08:12.915Z,98829.92
2019-05-03T02:10:47.520Z,98825.41
2019-05-03T02:13:22.805Z,98819.87
2019-05-03T02:15:58.234Z,98819.06
2019-05-03T02:18:31.973Z,98817.80
2019-05-03T02:21:05.585Z,98818.02
2019-05-03T02:23:39.512Z,98810.85
2019-05-03T02:26:13.161Z,98810.85
2019-05-03T02:28:47.451Z,98799.41
2019-05-03T02:31:23.349Z,98795.17
2019-05-03T02:33:58.619Z,98791.88
2019-05-03T02:36:33.696Z,98782.11
2019-05-03T02:39:09.507Z,98773.69
2019-05-03T02:41:47.876Z,98783.98
2019-05-03T02:44:19.584Z,98780.41
2019-05-03T02:46:56.036Z,98787.13
2019-05-03T02:49:28.407Z,98790.95
2019-05-03T02:52:02.295Z,98788.77
2019-05-03T02:54:36.347Z,98778.80
2019-05-03T02:57:10.047Z,98774.97
2019-05-03T02:59:45.323Z,98758.95
2019-05-03T03:02:19.226Z,98760.88
2019-05-03T03:04:56.166Z,98758.41
2019-05-03T03:07:31.467Z,98761.48
2019-05-03T03:10:17.627Z,98759.60
2019-05-03T03:12:55.336Z,98752.10
2019-05-03T03:15:36.135Z,98751.95
2019-05-03T03:18:11.300Z,98747.03
2019-05-03T03:20:48.243Z,98740.96
2019-05-03T03:23:28.701Z,98731.04
2019-05-03T03:26:06.178Z,98733.83
2019-05-03T03:28:46.134Z,98733.95
2019-05-03T03:34:12.143Z,98719.89
2019-05-03T03:37:04.230Z,98713.92
2019-05-03T03:39:32.682Z,98712.14
2019-05-03T03:42:08.719Z,98708.57
2019-05-03T03:44:42.553Z,98702.53
2019-05-03T03:47:18.488Z,98700.86
2019-05-03T03:49:55.287Z,98699.69
2019-05-03T03:52:31.357Z,98697.75
2019-05-03T03:55:06.437Z,98689.41
2019-05-03T03:57:40.663Z,98688.21
2019-05-03T04:00:16.271Z,98678.00
2019-05-03T04:02:49.444Z,98684.20
2019-05-03T04:05:25.444Z,98679.42
2019-05-03T04:07:58.630Z,98677.63
2019-05-03T04:10:35.021Z,98677.20
2019-05-03T04:13:08.527Z,98674.38
2019-05-03T04:15:45.100Z,98666.80
2019-05-03T04:18:19.496Z,98673.00
2019-05-03T04:20:55.931Z,98672.64
2019-05-03T04:23:29.313Z,98662.06
2019-05-03T04:26:03.374Z,98654.95
2019-05-03T04:28:38.465Z,98654.95
2019-05-03T04:31:15.073Z,98642.17
2019-05-03T04:33:48.520Z,98643.48
2019-05-03T04:36:22.418Z,98652.75
2019-05-03T04:38:56.391Z,98646.34
2019-05-03T04:41:30.589Z,98644.48
2019-05-03T04:44:08.330Z,98646.93
2019-05-03T04:46:46.252Z,98639.75
2019-05-03T04:49:20.797Z,98639.01
2019-05-03T04:52:01.481Z,98637.59
2019-05-03T04:54:35.567Z,98634.30
2019-05-03T04:57:34.267Z,98635.59
2019-05-03T04:59:56.103Z,98635.79
2019-05-03T05:02:31.237Z,98627.58
2019-05-03T05:05:05.997Z,98622.77
2019-05-03T05:07:40.011Z,98615.19
2019-05-03T05:10:15.604Z,98620.67
2019-05-03T05:12:50.683Z,98605.37
2019-05-03T05:15:26.380Z,98607.59
2019-05-03T05:18:00.904Z,98607.50
2019-05-03T05:20:35.968Z,98601.25
2019-05-03T05:23:09.616Z,98599.84
2019-05-03T05:25:44.600Z,98601.95
2019-05-03T05:28:19.094Z,98588.70
2019-05-03T05:30:54.643Z,98575.52
2019-05-03T05:33:28.808Z,98576.81
2019-05-03T05:36:04.847Z,98581.14
2019-05-03T05:38:38.908Z,98582.13
2019-05-03T05:41:12.686Z,98580.36
2019-05-03T05:43:46.546Z,98568.15
2019-05-03T05:46:20.330Z,98565.84
2019-05-03T05:48:55.386Z,98561.04
2019-05-03T05:51:28.642Z,98564.35
2019-05-03T05:54:02.303Z,98564.86
2019-05-03T05:56:36.460Z,98560.10
2019-05-03T05:59:10.312Z,98557.30
2019-05-03T06:01:45.672Z,98549.19
2019-05-03T06:04:19.609Z,98548.04
2019-05-03T06:06:55.370Z,98551.97
2019-05-03T06:09:29.397Z,98552.02
2019-05-03T06:12:04.518Z,98539.91
2019-05-03T06:14:38.364Z,98531.08
2019-05-03T06:17:14.514Z,98529.37
2019-05-03T06:19:47.398Z,98521.59
2019-05-03T06:22:21.320Z,98524.64
2019-05-03T06:24:56.376Z,98512.00
2019-05-03T06:27:30.117Z,98512.14
2019-05-03T06:30:04.717Z,98505.80
2019-05-03T06:32:38.464Z,98495.80
2019-05-03T06:35:12.369Z,98493.91
2019-05-03T06:37:47.492Z,98490.20
2019-05-03T06:40:25.170Z,98490.49
2019-05-03T06:43:08.668Z,98495.22
2019-05-03T06:45:46.670Z,98491.89
2019-05-03T06:48:17.711Z,98487.37
2019-05-03T06:50:52.386Z,98479.25
2019-05-03T06:53:25.848Z,98480.66
2019-05-03T06:55:59.830Z,98471.95
2019-05-03T06:58:36.257Z,98469.40
2019-05-03T07:01:11.213Z,98462.41
2019-05-03T07:03:45.722Z,98470.06
2019-05-03T07:06:33.342Z,98469.92
2019-05-03T07:08:56.637Z,98470.55
2019-05-03T07:11:30.279Z,98474.07
2019-05-03T07:14:05.243Z,98476.42
2019-05-03T07:16:38.738Z,98467.44
2019-05-03T07:19:14.606Z,98463.91
2019-05-03T07:21:47.288Z,98459.48
2019-05-03T07:24:20.888Z,98454.75
2019-05-03T07:26:55.086Z,98457.28
2019-05-03T07:29:29.141Z,98453.45
2019-05-03T07:32:05.184Z,98456.58
2019-05-03T07:34:39.226Z,98456.58
2019-05-03T07:37:14.451Z,98450.49
2019-05-03T07:39:49.060Z,98440.60
2019-05-03T07:42:22.931Z,98437.80
2019-05-03T07:44:57.008Z,98430.55
2019-05-03T07:47:30.649Z,98427.23
2019-05-03T07:50:05.038Z,98431.77
2019-05-03T07:52:59.891Z,98440.54
2019-05-03T07:55:35.268Z,98435.43
2019-05-03T07:58:10.300Z,98439.05
2019-05-03T08:00:44.573Z,98433.36
2019-05-03T08:03:18.588Z,98436.68
2019-05-03T08:05:52.734Z,98435.44
2019-05-03T08:08:28.247Z,98432.12
2019-05-03T08:11:05.133Z,98428.80
2019-05-03T08:13:46.110Z,98425.06
2019-05-03T08:16:20.668Z,98429.59
2019-05-03T08:18:55.902Z,98424.35
2019-05-03T08:21:31.032Z,98426.88
2019-05-03T08:24:04.986Z,98422.36
2019-05-03T08:26:39.262Z,98423.85
2019-05-03T08:29:18.499Z,98423.69
2019-05-03T08:31:49.076Z,98418.70
2019-05-03T08:34:23.005Z,98416.34
2019-05-03T08:36:56.894Z,98422.50
2019-05-03T08:39:31.781Z,98420.12
2019-05-03T08:42:07.014Z,98422.90
2019-05-03T08:44:42.280Z,98422.83
2019-05-03T08:47:16.579Z,98417.30
2019-05-03T08:49:55.390Z,98416.28
2019-05-03T08:52:36.065Z,98422.28
2019-05-03T08:55:11.038Z,98422.97
2019-05-03T08:57:46.895Z,98422.28
2019-05-03T09:00:21.755Z,98420.48
2019-05-03T09:02:55.538Z,98418.95
2019-05-03T09:05:30.010Z,98418.74
2019-05-03T09:08:05.638Z,98422.56
2019-05-03T09:10:40.760Z,98415.71
2019-05-03T09:13:14.782Z,98410.15
2019-05-03T09:15:49.135Z,98414.67
2019-05-03T09:18:22.970Z,98414.08
2019-05-03T09:20:57.262Z,98421.89
2019-05-03T09:23:31.382Z,98419.17
2019-05-03T09:26:06.681Z,98421.32
2019-05-03T09:28:40.632Z,98416.37
2019-05-03T09:31:15.518Z,98419.48
2019-05-03T09:33:50.087Z,98430.08
2019-05-03T09:36:25.322Z,98423.47
2019-05-03T09:38:59.849Z,98422.52
2019-05-03T09:41:34.719Z,98415.17
2019-05-03T09:44:10.021Z,98418.22
2019-05-03T09:46:44.659Z,98416.86
2019-05-03T09:49:18.522Z,98404.77
2019-05-03T09:51:54.641Z,98404.97
2019-05-03T09:54:27.825Z,98407.20
2019-05-03T09:57:01.588Z,98407.43
2019-05-03T09:59:37.017Z,98401.66
2019-05-03T10:02:12.644Z,98397.03
2019-05-03T10:04:46.251Z,98401.88
2019-05-03T10:07:20.296Z,98401.52
2019-05-03T10:09:55.199Z,98406.31
2019-05-03T10:12:31.791Z,98407.16
2019-05-03T10:15:09.019Z,98418.38
2019-05-03T10:17:45.824Z,98423.75
2019-05-03T10:20:18.859Z,98421.39
2019-05-03T10:22:54.452Z,98419.59
2019-05-03T10:25:27.767Z,98424.55
2019-05-03T10:28:01.631Z,98422.73
2019-05-03T10:30:35.824Z,98428.92
2019-05-03T10:33:09.694Z,98431.33
2019-05-03T10:35:44.989Z,98426.93
2019-05-03T10:38:21.429Z,98427.70
2019-05-03T10:40:55.788Z,98428.20
2019-05-03T10:43:29.283Z,98431.15
2019-05-03T10:46:04.980Z,98433.52
2019-05-03T10:48:38.260Z,98431.44
2019-05-03T10:51:12.759Z,98428.54
2019-05-03T10:53:48.165Z,98433.52
2019-05-03T10:56:24.518Z,98429.66
2019-05-03T10:58:57.450Z,98437.12
2019-05-03T11:01:32.079Z,98438.50
2019-05-03T11:04:07.448Z,98436.31
2019-05-03T11:06:45.523Z,98442.47
2019-05-03T11:09:20.658Z,98440.84
2019-05-03T11:11:55.546Z,98440.19
2019-05-03T11:14:29.896Z,98442.25
2019-05-03T11:17:06.142Z,98438.20
2019-05-03T11:19:45.265Z,98444.76
2019-05-03T11:22:19.668Z,98449.44
2019-05-03T11:24:56.229Z,98454.62
2019-05-03T11:27:35.265Z,98448.34
2019-05-03T11:30:11.264Z,98457.11
2019-05-03T11:32:52.361Z,98459.35
2019-05-03T11:35:28.969Z,98464.97
2019-05-03T11:38:05.806Z,98458.73
2019-05-03T11:40:42.692Z,98458.97
2019-05-03T11:43:16.750Z,98454.67
2019-05-03T11:45:51.471Z,98454.03
2019-05-03T11:48:28.344Z,98447.60
2019-05-03T11:51:07.984Z,98443.92
2019-05-03T11:53:45.034Z,98449.23
2019-05-03T11:56:30.912Z,98449.67
2019-05-03T11:59:02.506Z,98451.05
2019-05-03T12:01:37.221Z,98458.41
2019-05-03T12:04:12.977Z,98464.79
2019-05-03T12:06:47.177Z,98458.83
2019-05-03T12:09:21.622Z,98464.55
2019-05-03T12:11:55.911Z,98466.25
2019-05-03T12:14:31.494Z,98471.39
2019-05-03T12:17:18.233Z,98470.52
2019-05-03T12:19:52.106Z,98465.11
2019-05-03T12:22:27.957Z,98464.98
2019-05-03T12:25:02.794Z,98466.91
2019-05-03T12:27:37.873Z,98468.57
2019-05-03T12:30:15.606Z,98480.20
2019-05-03T12:33:36.641Z,98471.20
2019-05-03T12:35:51.614Z,98470.98
2019-05-03T12:38:29.860Z,98471.70
2019-05-03T12:41:06.454Z,98472.20
2019-05-03T12:43:41.738Z,98470.67
2019-05-03T12:46:16.857Z,98469.28
2019-05-03T12:48:51.301Z,98468.70
2019-05-03T12:51:26.229Z,98467.22
2019-05-03T12:54:00.480Z,98464.13
2019-05-03T12:56:35.779Z,98472.09
2019-05-03T12:59:10.276Z,98468.87
2019-05-03T13:01:46.316Z,98468.87
2019-05-03T13:04:20.061Z,98476.62
2019-05-03T13:06:54.952Z,98484.00
2019-05-03T13:09:29.517Z,98486.73
2019-05-03T13:12:05.442Z,98487.40
2019-05-03T13:14:38.772Z,98483.95
2019-05-03T13:17:15.120Z,98483.51
2019-05-03T13:19:48.035Z,98485.12
2019-05-03T13:22:22.390Z,98495.19
2019-05-03T13:24:58.189Z,98495.54
2019-05-03T13:27:31.839Z,98501.10
2019-05-03T13:30:09.661Z,98497.84
2019-05-03T13:32:54.924Z,98498.28
2019-05-03T13:35:44.945Z,98499.76
2019-05-03T13:38:35.701Z,98496.31
2019-05-03T13:41:16.959Z,98500.34
2019-05-03T13:43:54.895Z,98495.27
2019-05-03T13:46:30.968Z,98498.36
2019-05-03T13:49:10.559Z,98496.55
2019-05-03T13:51:45.318Z,98497.49
2019-05-03T13:54:20.813Z,98495.90
2019-05-03T13:56:56.943Z,98488.58
2019-05-03T13:59:31.923Z,98492.24
2019-05-03T14:02:15.156Z,98495.37
2019-05-03T14:04:50.154Z,98483.39
2019-05-03T14:07:19.330Z,98486.64
2019-05-03T14:09:55.707Z,98489.58
2019-05-03T14:12:30.658Z,98491.55
2019-05-03T14:15:05.641Z,98479.66
2019-05-03T14:17:40.664Z,98486.27
2019-05-03T14:20:18.609Z,98487.65
2019-05-03T14:22:56.717Z,98490.45
2019-05-03T14:25:34.987Z,98483.50
2019-05-03T14:28:09.418Z,98485.39
2019-05-03T14:30:45.189Z,98488.39
2019-05-03T14:33:28.028Z,98489.12
2019-05-03T14:36:01.007Z,98495.35
2019-05-03T14:38:37.641Z,98500.09
2019-05-03T14:41:18.878Z,98502.15
2019-05-03T14:43:55.437Z,98495.23
2019-05-03T14:46:32.666Z,98488.12
2019-05-03T14:49:05.535Z,98493.79
2019-05-03T14:51:56.692Z,98498.58
2019-05-03T14:54:34.155Z,98502.16
2019-05-03T14:57:07.874Z,98504.69
2019-05-03T14:59:42.593Z,98504.69
2019-05-03T15:02:16.591Z,98506.76
2019-05-03T15:04:50.728Z,98506.00
2019-05-03T15:07:26.651Z,98503.71
2019-05-03T15:10:00.262Z,98511.02
2019-05-03T15:12:35.935Z,98504.14
2019-05-03T15:15:10.762Z,98513.63
2019-05-03T15:17:45.762Z,98509.30
2019-05-03T15:20:20.532Z,98502.42
2019-05-03T15:22:56.104Z,98503.64
2019-05-03T15:25:34.418Z,98501.03
2019-05-03T15:28:07.185Z,98505.72
2019-05-03T15:30:41.412Z,98507.66
2019-05-03T15:33:15.599Z,98509.56
2019-05-03T15:35:49.742Z,98507.23
2019-05-03T15:38:23.538Z,98502.20
2019-05-03T15:40:57.737Z,98504.44
2019-05-03T15:43:31.947Z,98509.47
2019-05-03T15:46:06.483Z,98507.67
2019-05-03T15:48:42.338Z,98495.57
2019-05-03T15:51:17.387Z,98495.57
2019-05-03T15:53:51.649Z,98503.48
2019-05-03T15:56:26.052Z,98502.28
2019-05-03T15:58:59.865Z,98501.29
2019-05-03T16:01:35.315Z,98502.94
2019-05-03T16:04:10.097Z,98504.86
2019-05-03T16:06:44.814Z,98501.25
2019-05-03T16:09:19.305Z,98500.43
2019-05-03T16:11:55.431Z,98503.09
2019-05-03T16:14:28.359Z,98506.62
2019-05-03T16:17:04.340Z,98507.19
2019-05-03T16:19:37.658Z,98504.28
2019-05-03T16:22:14.398Z,98504.55
2019-05-03T16:24:48.901Z,98513.51
2019-05-03T16:27:24.699Z,98502.43
2019-05-03T16:29:58.440Z,98513.12
2019-05-03T16:32:34.711Z,98497.67
2019-05-03T16:35:11.053Z,98510.00
2019-05-03T16:37:46.069Z,98508.74
2019-05-03T16:40:19.875Z,98502.78
2019-05-03T16:42:53.880Z,98498.56
2019-05-03T16:45:30.563Z,98497.48
2019-05-03T16:48:04.599Z,98491.19
2019-05-03T16:50:38.079Z,98497.98
2019-05-03T16:53:16.093Z,98500.33
2019-05-03T16:55:50.291Z,98500.37
2019-05-03T16:58:24.856Z,98495.34
2019-05-03T17:00:59.321Z,98496.14
2019-05-03T17:03:40.844Z,98489.66
2019-05-03T17:06:11.782Z,98490.50
2019-05-03T17:08:46.445Z,98491.23
2019-05-03T17:11:20.641Z,98487.39
2019-05-03T17:13:57.679Z,98493.42
2019-05-03T17:16:50.025Z,98491.52
2019-05-03T17:19:24.504Z,98482.71
2019-05-03T17:21:59.102Z,98483.03
2019-05-03T17:24:32.837Z,98487.75
2019-05-03T17:27:07.932Z,98493.48
2019-05-03T17:29:42.056Z,98490.19
2019-05-03T17:32:15.675Z,98490.19
2019-05-03T17:34:52.409Z,98490.28
2019-05-03T17:37:26.719Z,98483.95
2019-05-03T17:40:01.250Z,98488.50
2019-05-03T17:42:35.794Z,98485.55
2019-05-03T17:45:10.933Z,98484.50
2019-05-03T17:47:45.428Z,98487.31
2019-05-03T17:50:19.885Z,98484.89
2019-05-03T17:52:54.665Z,98489.34
2019-05-03T17:55:29.363Z,98495.22
2019-05-03T17:58:04.535Z,98485.65
2019-05-03T18:00:41.741Z,98491.18
2019-05-03T18:03:16.601Z,98479.53
2019-05-03T18:05:51.397Z,98480.74
2019-05-03T18:08:25.451Z,98483.86
2019-05-03T18:11:01.344Z,98485.75
2019-05-03T18:13:35.617Z,98479.08
2019-05-03T18:16:09.801Z,98486.67
2019-05-03T18:18:45.612Z,98483.22
2019-05-03T18:21:19.765Z,98479.70
2019-05-03T18:23:54.506Z,98477.09
2019-05-03T18:26:29.563Z,98484.48
2019-05-03T18:29:05.803Z,98477.03
2019-05-03T18:31:40.322Z,98481.72
2019-05-03T18:34:19.775Z,98483.67
2019-05-03T18:36:49.558Z,98490.93
2019-05-03T18:39:25.093Z,98493.07
2019-05-03T18:41:59.547Z,98491.45
2019-05-03T18:44:34.596Z,98491.93
2019-05-03T18:47:09.272Z,98493.19
2019-05-03T18:49:44.709Z,98499.48
2019-05-03T18:52:19.888Z,98494.00
2019-05-03T18:54:56.235Z,98492.16
2019-05-03T18:57:31.025Z,98486.32
2019-05-03T19:00:08.080Z,98493.53
2019-05-03T19:02:40.979Z,98485.41
2019-05-03T19:05:15.293Z,98488.63
2019-05-03T19:07:50.008Z,98491.22
2019-05-03T19:10:27.801Z,98485.41
2019-05-03T19:13:01.452Z,98489.71
2019-05-03T19:15:35.350Z,98487.75
2019-05-03T19:18:09.535Z,98488.91
2019-05-03T19:20:43.168Z,98493.63
2019-05-03T19:23:16.786Z,98495.36
2019-05-03T19:25:50.639Z,98496.67
2019-05-03T19:28:24.985Z,98500.78
2019-05-03T19:30:58.506Z,98495.75
2019-05-03T19:33:34.761Z,98500.75
2019-05-03T19:36:08.429Z,98504.67
2019-05-03T19:39:01.615Z,98501.72
2019-05-03T19:41:36.645Z,98505.98
2019-05-03T19:44:10.125Z,98501.28
2019-05-03T19:46:44.521Z,98498.30
2019-05-03T19:49:18.648Z,98501.72
2019-05-03T19:51:54.260Z,98501.83
2019-05-03T19:54:27.371Z,98503.09
2019-05-03T19:57:00.744Z,98501.86
2019-05-03T19:59:34.810Z,98495.80
2019-05-03T20:02:09.932Z,98495.91
2019-05-03T20:04:43.529Z,98487.54
2019-05-03T20:07:16.905Z,98485.16
2019-05-03T20:09:50.586Z,98487.58
2019-05-03T20:12:24.633Z,98489.89
2019-05-03T20:14:58.775Z,98492.27
2019-05-03T20:17:34.596Z,98490.46
2019-05-03T20:20:09.534Z,98494.84
2019-05-03T20:22:45.112Z,98494.49
2019-05-03T20:25:19.532Z,98495.95
2019-05-03T20:27:53.428Z,98493.42
2019-05-03T20:30:27.162Z,98499.41
2019-05-03T20:33:00.849Z,98501.75
2019-05-03T20:35:35.673Z,98496.58
2019-05-03T20:38:09.466Z,98500.95
2019-05-03T20:40:44.970Z,98505.67
2019-05-03T20:43:18.101Z,98509.25
2019-05-03T20:45:54.780Z,98513.16
2019-05-03T20:48:27.670Z,98506.02
2019-05-03T20:51:03.018Z,98508.31
2019-05-03T20:53:37.822Z,98508.20
2019-05-03T20:56:11.860Z,98511.55
2019-05-03T20:58:45.272Z,98511.62
2019-05-03T21:01:19.030Z,98508.86
2019-05-03T21:03:54.234Z,98520.84
2019-05-03T21:06:35.450Z,98522.08
2019-05-03T21:09:05.356Z,98529.80
2019-05-03T21:11:39.099Z,98524.22
2019-05-03T21:14:12.682Z,98523.76
2019-05-03T21:16:47.915Z,98525.48
2019-05-03T21:19:21.414Z,98530.98
2019-05-03T21:21:55.039Z,98532.48
2019-05-03T21:24:34.747Z,98532.86
2019-05-03T21:27:09.187Z,98529.72
2019-05-03T21:29:45.152Z,98539.55
2019-05-03T21:32:17.888Z,98544.13
2019-05-03T21:34:51.525Z,98536.28
2019-05-03T21:37:25.188Z,98543.97
2019-05-03T21:39:58.663Z,98543.39
2019-05-03T21:42:32.311Z,98544.77
2019-05-03T21:45:06.865Z,98547.84
2019-05-03T21:47:40.584Z,98551.42
2019-05-03T21:50:15.786Z,98548.53
2019-05-03T21:52:49.602Z,98546.84
2019-05-03T21:55:24.705Z,98555.02
2019-05-03T21:57:57.889Z,98557.23
2019-05-03T22:00:32.037Z,98552.38
2019-05-03T22:03:05.607Z,98559.55
2019-05-03T22:05:51.787Z,98558.50
2019-05-03T22:11:14.904Z,98557.19
2019-05-03T22:13:48.171Z,98558.50
2019-05-03T22:16:21.704Z,98553.37
2019-05-03T22:18:55.245Z,98558.15
2019-05-03T22:21:29.424Z,98565.30
2019-05-03T22:24:04.452Z,98565.17
2019-05-03T22:26:38.048Z,98565.17
2019-05-03T22:29:14.381Z,98558.77
2019-05-03T22:31:48.069Z,98562.06
2019-05-03T22:34:25.615Z,98562.06
2019-05-03T22:36:56.445Z,98564.64
2019-05-03T22:39:29.901Z,98560.48
2019-05-03T22:42:04.561Z,98559.84
2019-05-03T22:44:39.951Z,98574.83
2019-05-03T22:47:14.716Z,98570.83
2019-05-03T22:49:48.238Z,98571.84
2019-05-03T22:52:21.851Z,98577.38
2019-05-03T22:54:55.607Z,98566.48
2019-05-03T22:57:29.163Z,98565.90
2019-05-03T23:00:06.057Z,98565.78
2019-05-03T23:02:37.291Z,98580.68
2019-05-03T23:05:11.107Z,98575.23
2019-05-03T23:07:46.883Z,98576.09
2019-05-03T23:10:19.838Z,98576.98
2019-05-03T23:12:54.349Z,98575.50
2019-05-03T23:15:29.672Z,98585.02
2019-05-03T23:18:04.896Z,98578.41
2019-05-03T23:20:38.455Z,98577.66
2019-05-03T23:23:14.395Z,98583.70
2019-05-03T23:25:47.465Z,98583.89
2019-05-03T23:28:21.340Z,98582.61
2019-05-03T23:30:55.284Z,98582.42
2019-05-03T23:33:28.935Z,98578.52
2019-05-03T23:36:04.404Z,98584.59
2019-05-03T23:38:37.599Z,98586.77
2019-05-03T23:41:11.531Z,98588.52
2019-05-03T23:43:45.083Z,98591.05
2019-05-03T23:46:18.899Z,98578.87
2019-05-03T23:48:52.463Z,98578.20
2019-05-03T23:51:26.028Z,98572.82
2019-05-03T23:54:00.053Z,98584.81
2019-05-03T23:56:35.027Z,98568.55
2019-05-03T23:59:08.576Z,98578.72
